sensor_id;sensor_type;location;lat;lon;timestamp;pressure;altitude;pressure_sealevel;temperature;humidity
34185;BME280;20454;48.100;11.776;2023-05-13T00:00:33;95260.94;;;10.29;100.00
34185;BME280;20454;48.100;11.776;2023-05-13T00:02:59;95259.31;;;10.28;100.00
34185;BME280;20454;48.100;11.776;2023-05-13T00:05:25;95259.78;;;10.30;100.00
34185;BME280;20454;48.100;11.776;2023-05-13T00:07:51;95260.28;;;10.32;100.00
34185;BME280;20454;48.100;11.776;2023-05-13T00:10:17;95260.28;;;10.32;100.00
34185;BME280;20454;48.100;11.776;2023-05-13T00:12:45;95268.63;;;10.32;100.00
34185;BME280;20454;48.100;11.776;2023-05-13T00:15:11;95258.31;;;10.24;100.00
34185;BME280;20454;48.100;11.776;2023-05-13T00:17:36;95252.44;;;10.26;100.00
34185;BME280;20454;48.100;11.776;2023-05-13T00:20:02;95254.91;;;10.27;100.00
34185;BME280;20454;48.100;11.776;2023-05-13T00:22:28;95254.75;;;10.24;100.00
34185;BME280;20454;48.100;11.776;2023-05-13T00:24:54;95256.69;;;10.23;100.00
34185;BME280;20454;48.100;11.776;2023-05-13T00:27:20;95264.22;;;10.23;100.00
34185;BME280;20454;48.100;11.776;2023-05-13T00:29:46;95258.66;;;10.23;100.00
34185;BME280;20454;48.100;11.776;2023-05-13T00:32:11;95261.25;;;10.19;100.00
34185;BME280;20454;48.100;11.776;2023-05-13T00:34:37;95265.69;;;10.20;100.00
34185;BME280;20454;48.100;11.776;2023-05-13T00:37:03;95268.97;;;10.22;100.00
34185;BME280;20454;48.100;11.776;2023-05-13T00:39:29;95262.41;;;10.18;100.00
34185;BME280;20454;48.100;11.776;2023-05-13T00:41:55;95267.63;;;10.20;100.00
34185;BME280;20454;48.100;11.776;2023-05-13T00:44:21;95266.50;;;10.21;100.00
34185;BME280;20454;48.100;11.776;2023-05-13T00:46:46;95259.31;;;10.20;100.00
34185;BME280;20454;48.100;11.776;2023-05-13T00:49:13;95253.56;;;10.16;100.00
34185;BME280;20454;48.100;11.776;2023-05-13T00:51:39;95258.47;;;10.19;100.00
34185;BME280;20454;48.100;11.776;2023-05-13T00:54:05;95267.97;;;10.18;100.00
34185;BME280;20454;48.100;11.776;2023-05-13T00:56:30;95268.31;;;10.17;100.00
34185;BME280;20454;48.100;11.776;2023-05-13T00:58:56;95273.88;;;10.17;100.00
34185;BME280;20454;48.100;11.776;2023-05-13T01:04:43;95277.28;;;10.14;100.00
34185;BME280;20454;48.100;11.776;2023-05-13T01:12:40;95255.38;;;10.04;100.00
34185;BME280;20454;48.100;11.776;2023-05-13T01:15:09;95270.41;;;10.11;100.00
34185;BME280;20454;48.100;11.776;2023-05-13T01:17:46;95269.44;;;10.07;100.00
34185;BME280;20454;48.100;11.776;2023-05-13T01:20:14;95267.13;;;10.09;100.00
34185;BME280;20454;48.100;11.776;2023-05-13T01:22:43;95272.38;;;10.11;100.00
34185;BME280;20454;48.100;11.776;2023-05-13T01:25:08;95266.81;;;10.11;100.00
34185;BME280;20454;48.100;11.776;2023-05-13T01:27:34;95260.44;;;10.10;100.00
34185;BME280;20454;48.100;11.776;2023-05-13T01:30:00;95273.19;;;10.11;100.00
34185;BME280;20454;48.100;11.776;2023-05-13T01:32:26;95265.81;;;10.07;100.00
34185;BME280;20454;48.100;11.776;2023-05-13T01:34:52;95271.69;;;10.05;100.00
34185;BME280;20454;48.100;11.776;2023-05-13T01:37:19;95274.00;;;10.03;100.00
34185;BME280;20454;48.100;11.776;2023-05-13T01:39:45;95276.94;;;10.07;100.00
34185;BME280;20454;48.100;11.776;2023-05-13T01:42:11;95270.06;;;10.04;100.00
34185;BME280;20454;48.100;11.776;2023-05-13T01:44:36;95272.03;;;10.04;100.00
34185;BME280;20454;48.100;11.776;2023-05-13T01:47:02;95275.78;;;10.08;100.00
34185;BME280;20454;48.100;11.776;2023-05-13T01:49:28;95275.31;;;10.06;100.00
34185;BME280;20454;48.100;11.776;2023-05-13T01:51:53;95275.31;;;10.06;100.00
34185;BME280;20454;48.100;11.776;2023-05-13T01:54:19;95268.59;;;10.07;100.00
34185;BME280;20454;48.100;11.776;2023-05-13T01:56:45;95276.13;;;10.06;100.00
34185;BME280;20454;48.100;11.776;2023-05-13T01:59:10;95274.16;;;10.07;100.00
34185;BME280;20454;48.100;11.776;2023-05-13T06:02:36;95369.09;;;10.00;100.00
34185;BME280;20454;48.100;11.776;2023-05-13T06:05:01;95371.06;;;10.00;100.00
34185;BME280;20454;48.100;11.776;2023-05-13T06:07:27;95375.69;;;10.04;100.00
34185;BME280;20454;48.100;11.776;2023-05-13T06:09:53;95373.25;;;10.03;100.00
34185;BME280;20454;48.100;11.776;2023-05-13T06:12:19;95382.88;;;10.05;100.00
34185;BME280;20454;48.100;11.776;2023-05-13T06:17:16;95374.53;;;10.05;100.00
34185;BME280;20454;48.100;11.776;2023-05-13T06:19:41;95378.13;;;10.06;100.00
34185;BME280;20454;48.100;11.776;2023-05-13T06:22:08;95375.84;;;10.08;100.00
34185;BME280;20454;48.100;11.776;2023-05-13T06:24:34;95381.41;;;10.08;100.00
34185;BME280;20454;48.100;11.776;2023-05-13T06:26:59;95378.50;;;10.13;100.00
34185;BME280;20454;48.100;11.776;2023-05-13T06:29:26;95387.84;;;10.17;100.00
34185;BME280;20454;48.100;11.776;2023-05-13T06:31:52;95385.38;;;10.15;100.00
34185;BME280;20454;48.100;11.776;2023-05-13T06:34:17;95386.50;;;10.14;100.00
34185;BME280;20454;48.100;11.776;2023-05-13T06:36:43;95392.56;;;10.16;100.00
34185;BME280;20454;48.100;11.776;2023-05-13T06:39:09;95388.63;;;10.17;100.00
34185;BME280;20454;48.100;11.776;2023-05-13T06:41:36;95386.88;;;10.21;100.00
34185;BME280;20454;48.100;11.776;2023-05-13T06:44:02;95383.78;;;10.23;100.00
34185;BME280;20454;48.100;11.776;2023-05-13T06:46:28;95375.25;;;10.28;100.00
34185;BME280;20454;48.100;11.776;2023-05-13T06:48:54;95390.97;;;10.32;100.00
34185;BME280;20454;48.100;11.776;2023-05-13T06:51:21;95384.28;;;10.33;100.00
34185;BME280;20454;48.100;11.776;2023-05-13T06:53:47;95388.88;;;10.38;100.00
34185;BME280;20454;48.100;11.776;2023-05-13T06:56:13;95387.91;;;10.42;100.00
34185;BME280;20454;48.100;11.776;2023-05-13T06:58:38;95382.81;;;10.44;100.00
34185;BME280;20454;48.100;11.776;2023-05-13T07:03:39;95379.25;;;10.44;100.00
34185;BME280;20454;48.100;11.776;2023-05-13T07:06:05;95380.22;;;10.48;100.00
34185;BME280;20454;48.100;11.776;2023-05-13T07:08:31;95382.38;;;10.51;100.00
34185;BME280;20454;48.100;11.776;2023-05-13T07:10:56;95379.41;;;10.56;100.00
34185;BME280;20454;48.100;11.776;2023-05-13T07:13:22;95381.53;;;10.50;100.00
34185;BME280;20454;48.100;11.776;2023-05-13T07:15:48;95378.44;;;10.52;100.00
34185;BME280;20454;48.100;11.776;2023-05-13T07:18:13;95394.47;;;10.63;100.00
34185;BME280;20454;48.100;11.776;2023-05-13T07:20:39;95389.09;;;10.67;100.00
34185;BME280;20454;48.100;11.776;2023-05-13T07:23:05;95395.78;;;10.74;100.00
34185;BME280;20454;48.100;11.776;2023-05-13T07:25:30;95401.38;;;10.83;100.00
34185;BME280;20454;48.100;11.776;2023-05-13T07:27:56;95388.28;;;10.83;100.00
34185;BME280;20454;48.100;11.776;2023-05-13T07:30:22;95396.44;;;10.88;100.00
34185;BME280;20454;48.100;11.776;2023-05-13T07:32:47;95394.97;;;10.91;100.00
34185;BME280;20454;48.100;11.776;2023-05-13T07:35:13;95400.72;;;10.86;100.00
34185;BME280;20454;48.100;11.776;2023-05-13T07:37:41;95402.84;;;10.89;100.00
34185;BME280;20454;48.100;11.776;2023-05-13T07:40:07;95402.19;;;10.92;100.00
34185;BME280;20454;48.100;11.776;2023-05-13T07:42:33;95395.50;;;10.93;100.00
34185;BME280;20454;48.100;11.776;2023-05-13T07:44:59;95408.06;;;10.99;100.00
34185;BME280;20454;48.100;11.776;2023-05-13T07:47:24;95407.44;;;11.02;100.00
34185;BME280;20454;48.100;11.776;2023-05-13T07:49:52;95393.84;;;11.00;100.00
34185;BME280;20454;48.100;11.776;2023-05-13T07:52:17;95400.41;;;11.04;100.00
34185;BME280;20454;48.100;11.776;2023-05-13T07:54:43;95402.84;;;11.06;100.00
34185;BME280;20454;48.100;11.776;2023-05-13T07:57:09;95403.34;;;11.08;100.00
34185;BME280;20454;48.100;11.776;2023-05-13T07:59:34;95407.09;;;11.12;100.00
34185;BME280;20454;48.100;11.776;2023-05-13T08:02:00;95400.06;;;11.06;100.00
34185;BME280;20454;48.100;11.776;2023-05-13T08:04:26;95409.88;;;11.12;100.00
34185;BME280;20454;48.100;11.776;2023-05-13T08:06:52;95409.09;;;11.20;100.00
34185;BME280;20454;48.100;11.776;2023-05-13T09:21:51;95423.84;;;12.46;100.00
34185;BME280;20454;48.100;11.776;2023-05-13T09:24:17;95428.41;;;12.51;100.00
34185;BME280;20454;48.100;11.776;2023-05-13T09:26:45;95416.25;;;12.55;100.00
34185;BME280;20454;48.100;11.776;2023-05-13T09:29:27;95418.50;;;12.62;99.38
34185;BME280;20454;48.100;11.776;2023-05-13T09:31:59;95420.75;;;12.68;98.22
34185;BME280;20454;48.100;11.776;2023-05-13T09:34:29;95425.50;;;12.76;99.14
34185;BME280;20454;48.100;11.776;2023-05-13T09:39:24;95410.84;;;12.79;99.91
34185;BME280;20454;48.100;11.776;2023-05-13T09:41:51;95421.72;;;12.72;98.94
34185;BME280;20454;48.100;11.776;2023-05-13T09:44:16;95425.72;;;12.63;99.94
34185;BME280;20454;48.100;11.776;2023-05-13T09:46:42;95425.44;;;12.56;100.00
34185;BME280;20454;48.100;11.776;2023-05-13T09:49:11;95428.25;;;12.47;100.00
34185;BME280;20454;48.100;11.776;2023-05-13T09:51:36;95421.25;;;12.41;100.00
34185;BME280;20454;48.100;11.776;2023-05-13T09:54:06;95428.31;;;12.39;100.00
34185;BME280;20454;48.100;11.776;2023-05-13T09:56:33;95425.38;;;12.35;100.00
34185;BME280;20454;48.100;11.776;2023-05-13T09:59:00;95421.94;;;12.30;100.00
34185;BME280;20454;48.100;11.776;2023-05-13T10:01:27;95418.69;;;12.28;100.00
34185;BME280;20454;48.100;11.776;2023-05-13T10:03:56;95419.97;;;12.30;100.00
34185;BME280;20454;48.100;11.776;2023-05-13T10:06:28;95420.97;;;12.34;100.00
34185;BME280;20454;48.100;11.776;2023-05-13T10:08:55;95429.13;;;12.39;100.00
34185;BME280;20454;48.100;11.776;2023-05-13T10:11:25;95430.25;;;12.47;99.94
34185;BME280;20454;48.100;11.776;2023-05-13T10:13:54;95423.50;;;12.48;98.95
34185;BME280;20454;48.100;11.776;2023-05-13T10:16:23;95429.22;;;12.51;98.85
34185;BME280;20454;48.100;11.776;2023-05-13T10:18:49;95429.72;;;12.53;98.66
34185;BME280;20454;48.100;11.776;2023-05-13T10:21:16;95429.22;;;12.51;98.84
34185;BME280;20454;48.100;11.776;2023-05-13T10:23:43;95431.53;;;12.49;97.79
34185;BME280;20454;48.100;11.776;2023-05-13T10:26:09;95432.41;;;12.41;97.78
34185;BME280;20454;48.100;11.776;2023-05-13T10:28:35;95437.00;;;12.37;98.43
34185;BME280;20454;48.100;11.776;2023-05-13T10:31:02;95430.97;;;12.35;98.66
34185;BME280;20454;48.100;11.776;2023-05-13T10:33:28;95437.34;;;12.36;99.09
34185;BME280;20454;48.100;11.776;2023-05-13T10:41:36;95426.84;;;13.20;96.45
34185;BME280;20454;48.100;11.776;2023-05-13T10:44:12;95417.13;;;13.58;89.23
34185;BME280;20454;48.100;11.776;2023-05-13T10:46:38;95418.06;;;13.95;88.21
34185;BME280;20454;48.100;11.776;2023-05-13T10:49:13;95426.34;;;14.36;87.23
34185;BME280;20454;48.100;11.776;2023-05-13T10:51:46;95425.47;;;14.80;83.92
34185;BME280;20454;48.100;11.776;2023-05-13T10:54:21;95427.91;;;15.05;81.01
34185;BME280;20454;48.100;11.776;2023-05-13T10:56:57;95432.44;;;15.09;78.77
34185;BME280;20454;48.100;11.776;2023-05-13T10:59:23;95422.75;;;14.95;80.07
34185;BME280;20454;48.100;11.776;2023-05-13T11:01:48;95429.53;;;14.94;82.34
34185;BME280;20454;48.100;11.776;2023-05-13T11:04:16;95427.78;;;14.77;81.55
34185;BME280;20454;48.100;11.776;2023-05-13T11:06:43;95432.47;;;14.62;81.66
34185;BME280;20454;48.100;11.776;2023-05-13T11:11:40;95430.34;;;14.35;81.32
34185;BME280;20454;48.100;11.776;2023-05-13T11:14:19;95429.63;;;14.26;81.42
34185;BME280;20454;48.100;11.776;2023-05-13T11:16:46;95434.16;;;14.18;83.10
34185;BME280;20454;48.100;11.776;2023-05-13T11:19:22;95424.44;;;14.16;84.25
34185;BME280;20454;48.100;11.776;2023-05-13T11:21:53;95430.78;;;14.25;83.97
34185;BME280;20454;48.100;11.776;2023-05-13T11:24:20;95437.78;;;14.31;84.11
34185;BME280;20454;48.100;11.776;2023-05-13T11:26:52;95431.97;;;14.36;82.37
34185;BME280;20454;48.100;11.776;2023-05-13T11:29:31;95438.38;;;14.48;82.73
34185;BME280;20454;48.100;11.776;2023-05-13T11:31:58;95434.69;;;14.56;83.08
34185;BME280;20454;48.100;11.776;2023-05-13T11:34:24;95424.28;;;14.57;82.87
34185;BME280;20454;48.100;11.776;2023-05-13T11:36:56;95433.84;;;14.56;81.73
34185;BME280;20454;48.100;11.776;2023-05-13T11:39:24;95440.84;;;14.50;80.90
34185;BME280;20454;48.100;11.776;2023-05-13T11:41:53;95435.34;;;14.41;81.57
34185;BME280;20454;48.100;11.776;2023-05-13T11:44:23;95437.91;;;14.46;82.44
34185;BME280;20454;48.100;11.776;2023-05-13T11:46:54;95434.66;;;14.44;82.67
34185;BME280;20454;48.100;11.776;2023-05-13T11:49:31;95442.84;;;14.49;82.28
34185;BME280;20454;48.100;11.776;2023-05-13T11:52:01;95435.38;;;14.53;81.14
34185;BME280;20454;48.100;11.776;2023-05-13T11:54:28;95436.19;;;14.54;81.53
34185;BME280;20454;48.100;11.776;2023-05-13T11:56:53;95438.41;;;14.60;81.71
34185;BME280;20454;48.100;11.776;2023-05-13T11:59:19;95436.88;;;14.63;81.08
34185;BME280;20454;48.100;11.776;2023-05-13T12:01:45;95443.06;;;14.68;81.03
34185;BME280;20454;48.100;11.776;2023-05-13T12:04:11;95443.19;;;14.72;80.78
34185;BME280;20454;48.100;11.776;2023-05-13T12:06:43;95435.84;;;14.79;81.75
34185;BME280;20454;48.100;11.776;2023-05-13T12:09:10;95438.53;;;14.88;80.41
34185;BME280;20454;48.100;11.776;2023-05-13T12:11:37;95440.84;;;14.97;79.97
34185;BME280;20454;48.100;11.776;2023-05-13T12:14:03;95444.34;;;15.06;80.19
34185;BME280;20454;48.100;11.776;2023-05-13T12:16:29;95448.78;;;15.07;79.80
34185;BME280;20454;48.100;11.776;2023-05-13T12:18:59;95433.84;;;15.03;79.71
34185;BME280;20454;48.100;11.776;2023-05-13T12:21:29;95440.84;;;14.97;80.04
34185;BME280;20454;48.100;11.776;2023-05-13T12:23:55;95439.94;;;14.93;79.91
34185;BME280;20454;48.100;11.776;2023-05-13T14:59:16;95357.91;;;18.06;63.29
34185;BME280;20454;48.100;11.776;2023-05-13T15:01:42;95360.59;;;17.99;64.81
34185;BME280;20454;48.100;11.776;2023-05-13T15:04:08;95353.50;;;17.86;65.10
34185;BME280;20454;48.100;11.776;2023-05-13T15:06:36;95358.91;;;17.57;66.29
34185;BME280;20454;48.100;11.776;2023-05-13T15:09:03;95356.78;;;17.35;67.52
34185;BME280;20454;48.100;11.776;2023-05-13T15:13:56;95365.16;;;16.97;68.50
34185;BME280;20454;48.100;11.776;2023-05-13T15:16:21;95359.09;;;16.79;70.00
34185;BME280;20454;48.100;11.776;2023-05-13T15:18:47;95361.56;;;16.65;70.50
34185;BME280;20454;48.100;11.776;2023-05-13T15:21:14;95366.13;;;16.54;71.32
34185;BME280;20454;48.100;11.776;2023-05-13T15:23:40;95372.19;;;16.41;71.59
34185;BME280;20454;48.100;11.776;2023-05-13T15:26:06;95367.34;;;16.26;72.69
34185;BME280;20454;48.100;11.776;2023-05-13T15:28:31;95365.00;;;16.12;74.18
34185;BME280;20454;48.100;11.776;2023-05-13T15:30:57;95366.44;;;16.06;74.80
34185;BME280;20454;48.100;11.776;2023-05-13T15:33:23;95368.50;;;16.09;75.78
34185;BME280;20454;48.100;11.776;2023-05-13T15:35:50;95375.41;;;16.12;74.58
34185;BME280;20454;48.100;11.776;2023-05-13T15:38:17;95374.69;;;16.15;74.85
34185;BME280;20454;48.100;11.776;2023-05-13T15:40:42;95372.78;;;16.19;73.94
34185;BME280;20454;48.100;11.776;2023-05-13T15:43:08;95368.78;;;16.20;73.37
34185;BME280;20454;48.100;11.776;2023-05-13T15:45:34;95363.28;;;16.23;74.41
34185;BME280;20454;48.100;11.776;2023-05-13T15:47:59;95363.16;;;16.20;73.61
34185;BME280;20454;48.100;11.776;2023-05-13T15:50:25;95371.25;;;16.21;73.47
34185;BME280;20454;48.100;11.776;2023-05-13T15:52:51;95371.97;;;16.18;73.69
34185;BME280;20454;48.100;11.776;2023-05-13T15:55:19;95368.59;;;16.13;74.31
34185;BME280;20454;48.100;11.776;2023-05-13T15:57:45;95369.59;;;16.05;75.13
34185;BME280;20454;48.100;11.776;2023-05-13T16:00:11;95365.69;;;15.94;76.13
34185;BME280;20454;48.100;11.776;2023-05-13T16:02:37;95363.50;;;15.87;77.02
34185;BME280;20454;48.100;11.776;2023-05-13T16:05:07;95356.41;;;15.78;77.23
34185;BME280;20454;48.100;11.776;2023-05-13T16:07:32;95354.34;;;15.75;77.44
34185;BME280;20454;48.100;11.776;2023-05-13T16:09:58;95352.31;;;15.60;77.80
34185;BME280;20454;48.100;11.776;2023-05-13T16:12:24;95359.91;;;15.59;79.08
34185;BME280;20454;48.100;11.776;2023-05-13T16:14:49;95357.75;;;15.68;79.30
34185;BME280;20454;48.100;11.776;2023-05-13T16:17:15;95353.91;;;15.88;79.01
34185;BME280;20454;48.100;11.776;2023-05-13T16:19:41;95350.59;;;15.98;77.31
34185;BME280;20454;48.100;11.776;2023-05-13T16:22:24;95344.16;;;15.98;77.86
34185;BME280;20454;48.100;11.776;2023-05-13T16:24:50;95343.88;;;16.03;77.46
34185;BME280;20454;48.100;11.776;2023-05-13T16:27:17;95344.34;;;16.05;77.65
34185;BME280;20454;48.100;11.776;2023-05-13T16:29:42;95352.03;;;16.08;76.71
34185;BME280;20454;48.100;11.776;2023-05-13T16:32:08;95341.72;;;16.12;76.44
34185;BME280;20454;48.100;11.776;2023-05-13T16:34:36;95350.66;;;16.17;76.87
34185;BME280;20454;48.100;11.776;2023-05-13T16:37:01;95350.66;;;16.17;75.91
34185;BME280;20454;48.100;11.776;2023-05-13T16:39:27;95342.06;;;16.10;75.69
34185;BME280;20454;48.100;11.776;2023-05-13T16:41:54;95341.44;;;16.01;76.24
34185;BME280;20454;48.100;11.776;2023-05-13T16:44:20;95339.34;;;15.98;76.92
34185;BME280;20454;48.100;11.776;2023-05-13T16:46:46;95341.63;;;16.08;76.54
34185;BME280;20454;48.100;11.776;2023-05-13T16:49:11;95335.66;;;16.10;76.15
34185;BME280;20454;48.100;11.776;2023-05-13T16:51:37;95328.66;;;16.04;76.05
34185;BME280;20454;48.100;11.776;2023-05-13T16:54:03;95336.16;;;15.84;77.48
34185;BME280;20454;48.100;11.776;2023-05-13T16:56:28;95334.16;;;15.69;78.35
34185;BME280;20454;48.100;11.776;2023-05-13T16:58:56;95336.09;;;15.53;79.10
34185;BME280;20454;48.100;11.776;2023-05-13T17:01:22;95345.59;;;15.37;80.59
34185;BME280;20454;48.100;11.776;2023-05-13T17:03:47;95332.31;;;15.22;81.03
34185;BME280;20454;48.100;11.776;2023-05-13T17:06:13;95336.34;;;15.09;81.83
34185;BME280;20454;48.100;11.776;2023-05-13T19:33:46;95415.13;;;12.10;98.22
34185;BME280;20454;48.100;11.776;2023-05-13T19:36:11;95408.94;;;12.05;99.12
34185;BME280;20454;48.100;11.776;2023-05-13T19:38:37;95418.31;;;12.00;99.58
34185;BME280;20454;48.100;11.776;2023-05-13T19:41:03;95414.53;;;11.96;100.00
34185;BME280;20454;48.100;11.776;2023-05-13T19:43:28;95427.69;;;11.96;100.00
34185;BME280;20454;48.100;11.776;2023-05-13T19:45:54;95437.84;;;11.92;100.00
34185;BME280;20454;48.100;11.776;2023-05-13T19:48:21;95422.44;;;11.86;100.00
34185;BME280;20454;48.100;11.776;2023-05-13T19:50:47;95412.63;;;11.80;100.00
34185;BME280;20454;48.100;11.776;2023-05-13T19:53:13;95419.81;;;11.81;100.00
34185;BME280;20454;48.100;11.776;2023-05-13T19:55:39;95417.03;;;11.81;100.00
34185;BME280;20454;48.100;11.776;2023-05-13T19:58:05;95422.59;;;11.81;100.00
34185;BME280;20454;48.100;11.776;2023-05-13T20:00:31;95407.22;;;11.75;100.00
34185;BME280;20454;48.100;11.776;2023-05-13T20:02:57;95421.44;;;11.82;100.00
34185;BME280;20454;48.100;11.776;2023-05-13T20:05:23;95417.38;;;11.79;100.00
34185;BME280;20454;48.100;11.776;2023-05-13T20:07:48;95416.22;;;11.80;100.00
34185;BME280;20454;48.100;11.776;2023-05-13T20:10:14;95409.34;;;11.78;100.00
34185;BME280;20454;48.100;11.776;2023-05-13T20:12:39;95419.50;;;11.82;100.00
34185;BME280;20454;48.100;11.776;2023-05-13T20:15:06;95412.94;;;11.78;100.00
34185;BME280;20454;48.100;11.776;2023-05-13T20:17:31;95417.03;;;11.81;100.00
34185;BME280;20454;48.100;11.776;2023-05-13T20:19:57;95415.41;;;11.80;100.00
34185;BME280;20454;48.100;11.776;2023-05-13T20:22:23;95416.22;;;11.80;100.00
34185;BME280;20454;48.100;11.776;2023-05-13T20:24:49;95409.81;;;11.80;100.00
34185;BME280;20454;48.100;11.776;2023-05-13T20:27:16;95409.34;;;11.78;100.00
34185;BME280;20454;48.100;11.776;2023-05-13T20:29:43;95406.41;;;11.74;100.00
34185;BME280;20454;48.100;11.776;2023-05-13T20:32:09;95402.78;;;11.74;100.00
34185;BME280;20454;48.100;11.776;2023-05-13T20:34:35;95414.75;;;11.74;100.00
34185;BME280;20454;48.100;11.776;2023-05-13T20:37:02;95405.09;;;11.72;100.00
34185;BME280;20454;48.100;11.776;2023-05-13T20:39:28;95396.41;;;11.73;100.00
34185;BME280;20454;48.100;11.776;2023-05-13T20:41:54;95399.38;;;11.68;100.00
34185;BME280;20454;48.100;11.776;2023-05-13T20:44:20;95390.84;;;11.65;100.00
34185;BME280;20454;48.100;11.776;2023-05-13T20:46:46;95393.63;;;11.65;100.00
34185;BME280;20454;48.100;11.776;2023-05-13T20:49:13;95387.75;;;11.58;100.00
34185;BME280;20454;48.100;11.776;2023-05-13T20:51:41;95396.41;;;11.56;100.00
34185;BME280;20454;48.100;11.776;2023-05-13T20:54:07;95396.59;;;11.51;100.00
34185;BME280;20454;48.100;11.776;2023-05-13T20:56:33;95389.72;;;11.49;100.00
34185;BME280;20454;48.100;11.776;2023-05-13T20:58:58;95386.41;;;11.47;100.00
34185;BME280;20454;48.100;11.776;2023-05-13T21:01:24;95388.56;;;11.41;100.00
34185;BME280;20454;48.100;11.776;2023-05-13T21:03:50;95388.09;;;11.39;100.00
34185;BME280;20454;48.100;11.776;2023-05-13T21:06:16;95384.00;;;11.37;100.00
34185;BME280;20454;48.100;11.776;2023-05-13T21:08:42;95377.44;;;11.33;100.00
34185;BME280;20454;48.100;11.776;2023-05-13T21:11:08;95376.16;;;11.30;100.00
34185;BME280;20454;48.100;11.776;2023-05-13T21:13:34;95373.53;;;11.34;100.00
34185;BME280;20454;48.100;11.776;2023-05-13T21:16:03;95380.72;;;11.35;100.00
34185;BME280;20454;48.100;11.776;2023-05-13T21:18:29;95369.59;;;11.35;100.00
34185;BME280;20454;48.100;11.776;2023-05-13T21:20:55;95371.38;;;11.39;100.00
34185;BME280;20454;48.100;11.776;2023-05-13T21:23:21;95378.25;;;11.42;100.00
34185;BME280;20454;48.100;11.776;2023-05-13T21:25:47;95362.19;;;11.39;100.00
34185;BME280;20454;48.100;11.776;2023-05-13T21:28:12;95364.66;;;11.40;100.00
34185;BME280;20454;48.100;11.776;2023-05-13T21:30:38;95363.97;;;11.43;100.00
34185;BME280;20454;48.100;11.776;2023-05-13T21:33:04;95362.50;;;11.46;100.00
34185;BME280;20454;48.100;11.776;2023-05-13T21:35:30;95358.41;;;11.43;100.00
34185;BME280;20454;48.100;11.776;2023-05-13T21:37:55;95364.13;;;11.47;100.00
34185;BME280;20454;48.100;11.776;2023-05-13T21:40:21;95355.78;;;11.47;100.00
34185;BME280;20454;48.100;11.776;2023-05-13T21:42:46;95371.53;;;11.51;100.00
34185;BME280;20454;48.100;11.776;2023-05-13T21:45:12;95356.75;;;11.51;100.00
34185;BME280;20454;48.100;11.776;2023-05-13T21:47:39;95365.78;;;11.48;100.00
34185;BME280;20454;48.100;11.776;2023-05-13T21:50:06;95357.75;;;11.46;100.00
34185;BME280;20454;48.100;11.776;2023-05-13T21:52:32;95359.41;;;11.47;100.00
34185;BME280;20454;48.100;11.776;2023-05-13T21:54:57;95362.19;;;11.47;100.00
34185;BME280;20454;48.100;11.776;2023-05-13T21:57:23;95356.13;;;11.45;100.00
34185;BME280;20454;48.100;11.776;2023-05-13T21:59:49;95366.44;;;11.45;100.00
34185;BME280;20454;48.100;11.776;2023-05-13T22:02:14;95362.03;;;11.44;100.00
34185;BME280;20454;48.100;11.776;2023-05-13T22:04:41;95355.16;;;11.41;100.00
34185;BME280;20454;48.100;11.776;2023-05-13T22:07:07;95359.25;;;11.44;100.00
34185;BME280;20454;48.100;11.776;2023-05-13T22:09:32;95351.22;;;11.42;100.00
34185;BME280;20454;48.100;11.776;2023-05-13T22:11:58;95356.44;;;11.44;100.00
34185;BME280;20454;48.100;11.776;2023-05-13T22:14:24;95358.91;;;11.45;100.00
34185;BME280;20454;48.100;11.776;2023-05-13T22:16:49;95355.78;;;11.47;100.00
34185;BME280;20454;48.100;11.776;2023-05-13T22:19:15;95354.97;;;11.46;100.00
34185;BME280;20454;48.100;11.776;2023-05-13T22:21:41;95363.50;;;11.50;100.00
34185;BME280;20454;48.100;11.776;2023-05-13T22:24:06;95367.06;;;11.50;100.00
34185;BME280;20454;48.100;11.776;2023-05-13T22:26:33;95363.66;;;11.53;100.00
34185;BME280;20454;48.100;11.776;2023-05-13T22:28:59;95365.94;;;11.51;100.00
34185;BME280;20454;48.100;11.776;2023-05-13T22:31:25;95363.66;;;11.53;100.00
34185;BME280;20454;48.100;11.776;2023-05-13T22:33:51;95356.75;;;11.51;100.00
34185;BME280;20454;48.100;11.776;2023-05-13T22:36:16;95362.34;;;11.51;100.00
34185;BME280;20454;48.100;11.776;2023-05-13T22:38:42;95358.06;;;11.53;100.00
34185;BME280;20454;48.100;11.776;2023-05-13T22:41:10;95357.91;;;11.50;100.00
34185;BME280;20454;48.100;11.776;2023-05-13T22:43:36;95362.66;;;11.49;100.00
34185;BME280;20454;48.100;11.776;2023-05-13T22:46:01;95367.44;;;11.49;100.00
34185;BME280;20454;48.100;11.776;2023-05-13T22:48:27;95370.69;;;11.51;100.00
34185;BME280;20454;48.100;11.776;2023-05-13T22:50:53;95368.22;;;11.49;100.00
34185;BME280;20454;48.100;11.776;2023-05-13T22:53:22;95368.22;;;11.49;100.00
34185;BME280;20454;48.100;11.776;2023-05-13T22:55:49;95368.06;;;11.46;100.00
34185;BME280;20454;48.100;11.776;2023-05-13T22:58:15;95365.78;;;11.48;100.00
34185;BME280;20454;48.100;11.776;2023-05-13T23:00:41;95358.09;;;11.45;100.00
34185;BME280;20454;48.100;11.776;2023-05-13T23:03:07;95358.75;;;11.42;100.00
34185;BME280;20454;48.100;11.776;2023-05-13T23:05:33;95362.34;;;11.42;100.00
34185;BME280;20454;48.100;11.776;2023-05-13T23:07:58;95352.69;;;11.40;100.00
34185;BME280;20454;48.100;11.776;2023-05-13T23:10:24;95364.19;;;11.38;100.00
34185;BME280;20454;48.100;11.776;2023-05-13T23:12:50;95363.66;;;11.36;100.00
34185;BME280;20454;48.100;11.776;2023-05-13T23:15:15;95352.03;;;11.34;100.00
34185;BME280;20454;48.100;11.776;2023-05-13T23:17:41;95351.56;;;11.32;100.00